Summit Station, Ohio
Current Conditions -  °F | °C
As of 5:51 AM on Wednesday 26 Nov 2014 (Local Time) from KCMH Reporting Station
Overcast Overcast  
Wind Chill: 20°   Ceiling: 2700
Heat Index: 28°   Visibility: 9mi
Dew Point: 24°   Wind: 8mph
Humidity: 85%   Direction: 350°N
Pressure: 30.09"   Gusts: NA
Location:  40°N, 82.75°W
Report Text: KCMH 261051Z 35007KT 9SM BKN027 OVC140 M02/M04 A3009 RMK AO2 SLP197 T10221044 $
Loading
Personal Weather Stations






























Interactive Weather Map New forecast layout! Learn more

10-Day Weather Forecast

Advertisements
Track Severe Weather on mobile